Terminal Aerodrome Forecast
Issued by NWS

Home | Current Version | Previous Version | Text Only | Print | Product List | Glossary On
Versions: 1 2 3 4 5 6 7 8 9 10 11 12 13 14 15 16 17 18 19 20 21
000
FTUS46 KEKA 302330
TAFCEC
TAF
KCEC 302330Z 3100/3124 02010G20KT P6SM SKC
     FM310200 04008KT P6SM SKC
     FM310500 07005KT P6SM FEW010
     FM311700 07004KT P6SM SCT250
     FM312100 35003KT P6SM SCT010 BKN250=

USA.gov is the U.S. government's official web portal to all federal, state and local government web resources and services.